sensor_id;sensor_type;location;lat;lon;timestamp;pressure;altitude;pressure_sealevel;temperature;humidity
30875;BME280;17581;43.222;27.924;2022-11-20T00:02:22;100394.56;;;19.42;80.53
30875;BME280;17581;43.222;27.924;2022-11-20T00:04:47;100401.25;;;19.39;80.75
30875;BME280;17581;43.222;27.924;2022-11-20T00:07:12;100403.44;;;19.44;80.89
30875;BME280;17581;43.222;27.924;2022-11-20T00:09:38;100394.19;;;19.45;80.88
30875;BME280;17581;43.222;27.924;2022-11-20T00:12:03;100386.88;;;19.45;80.90
30875;BME280;17581;43.222;27.924;2022-11-20T00:14:29;100386.97;;;19.52;80.94
30875;BME280;17581;43.222;27.924;2022-11-20T00:16:54;100388.84;;;19.51;80.65
30875;BME280;17581;43.222;27.924;2022-11-20T00:19:20;100388.00;;;19.51;80.66
30875;BME280;17581;43.222;27.924;2022-11-20T00:21:45;100381.47;;;19.37;80.90
30875;BME280;17581;43.222;27.924;2022-11-20T00:24:11;100378.09;;;19.35;80.88
30875;BME280;17581;43.222;27.924;2022-11-20T00:26:36;100374.69;;;19.33;81.03
30875;BME280;17581;43.222;27.924;2022-11-20T00:29:02;100358.44;;;19.11;81.09
30875;BME280;17581;43.222;27.924;2022-11-20T00:31:28;100378.94;;;19.36;80.87
30875;BME280;17581;43.222;27.924;2022-11-20T00:33:54;100382.88;;;19.33;80.95
30875;BME280;17581;43.222;27.924;2022-11-20T00:36:25;100382.72;;;19.35;80.75
30875;BME280;17581;43.222;27.924;2022-11-20T00:38:52;100384.38;;;19.36;80.76
30875;BME280;17581;43.222;27.924;2022-11-20T00:41:18;100371.13;;;19.18;80.61
30875;BME280;17581;43.222;27.924;2022-11-20T00:43:43;100401.97;;;19.33;80.62
30875;BME280;17581;43.222;27.924;2022-11-20T00:46:13;100398.97;;;19.28;80.44
30875;BME280;17581;43.222;27.924;2022-11-20T00:48:38;100402.34;;;19.30;80.79
30875;BME280;17581;43.222;27.924;2022-11-20T00:51:04;100397.25;;;19.27;80.52
30875;BME280;17581;43.222;27.924;2022-11-20T00:53:30;100397.63;;;19.24;80.72
30875;BME280;17581;43.222;27.924;2022-11-20T00:56:01;100402.06;;;19.25;80.72
30875;BME280;17581;43.222;27.924;2022-11-20T00:58:35;100397.84;;;19.23;80.83
30875;BME280;17581;43.222;27.924;2022-11-20T01:01:07;100393.88;;;19.25;80.90
30875;BME280;17581;43.222;27.924;2022-11-20T01:03:38;100396.97;;;19.22;80.88
30875;BME280;17581;43.222;27.924;2022-11-20T01:06:07;100396.78;;;19.24;80.79
30875;BME280;17581;43.222;27.924;2022-11-20T01:08:34;100394.44;;;19.21;80.81
30875;BME280;17581;43.222;27.924;2022-11-20T01:11:04;100395.50;;;19.20;81.09
30875;BME280;17581;43.222;27.924;2022-11-20T01:13:31;100402.69;;;19.13;82.02
30875;BME280;17581;43.222;27.924;2022-11-20T01:16:30;100398.22;;;19.20;82.74
30875;BME280;17581;43.222;27.924;2022-11-20T01:18:58;100389.56;;;19.16;83.36
30875;BME280;17581;43.222;27.924;2022-11-20T01:21:28;100398.00;;;19.21;83.76
30875;BME280;17581;43.222;27.924;2022-11-20T01:23:54;100394.84;;;19.32;83.77
30875;BME280;17581;43.222;27.924;2022-11-20T01:26:22;100393.75;;;19.41;83.41
30875;BME280;17581;43.222;27.924;2022-11-20T01:28:48;100385.84;;;19.46;83.04
30875;BME280;17581;43.222;27.924;2022-11-20T01:31:17;100380.00;;;19.49;82.65
30875;BME280;17581;43.222;27.924;2022-11-20T01:33:44;100382.75;;;19.49;82.57
30875;BME280;17581;43.222;27.924;2022-11-20T01:36:10;100382.75;;;19.49;82.12
30875;BME280;17581;43.222;27.924;2022-11-20T01:38:36;100384.81;;;19.47;82.73
30875;BME280;17581;43.222;27.924;2022-11-20T01:41:02;100387.06;;;19.59;82.56
30875;BME280;17581;43.222;27.924;2022-11-20T01:43:28;100386.13;;;19.66;82.01
30875;BME280;17581;43.222;27.924;2022-11-20T01:48:35;100352.34;;;19.52;81.02
30875;BME280;17581;43.222;27.924;2022-11-20T01:51:04;100380.75;;;19.73;81.06
30875;BME280;17581;43.222;27.924;2022-11-20T01:53:34;100363.72;;;19.71;80.74
30875;BME280;17581;43.222;27.924;2022-11-20T01:56:03;100374.47;;;19.72;80.72
30875;BME280;17581;43.222;27.924;2022-11-20T01:58:33;100384.91;;;19.69;80.35
30875;BME280;17581;43.222;27.924;2022-11-20T02:01:01;100372.28;;;19.68;80.79
30875;BME280;17581;43.222;27.924;2022-11-20T02:03:28;100376.16;;;19.59;81.44
30875;BME280;17581;43.222;27.924;2022-11-20T02:06:10;100377.47;;;19.63;81.23
30875;BME280;17581;43.222;27.924;2022-11-20T02:08:37;100378.78;;;19.67;81.69
30875;BME280;17581;43.222;27.924;2022-11-20T02:11:03;100373.13;;;19.68;81.75
30875;BME280;17581;43.222;27.924;2022-11-20T02:13:28;100370.66;;;19.73;81.72
30875;BME280;17581;43.222;27.924;2022-11-20T02:16:39;100367.00;;;19.81;81.66
30875;BME280;17581;43.222;27.924;2022-11-20T02:19:33;100362.84;;;19.85;81.13
30875;BME280;17581;43.222;27.924;2022-11-20T02:22:25;100362.06;;;19.91;80.85
30875;BME280;17581;43.222;27.924;2022-11-20T02:24:54;100323.25;;;19.74;80.43
30875;BME280;17581;43.222;27.924;2022-11-20T02:27:20;100368.69;;;19.96;80.36
30875;BME280;17581;43.222;27.924;2022-11-20T02:30:01;100367.06;;;20.02;80.24
30875;BME280;17581;43.222;27.924;2022-11-20T02:32:32;100367.97;;;20.09;79.80
30875;BME280;17581;43.222;27.924;2022-11-20T02:34:58;100361.94;;;20.14;79.49
30875;BME280;17581;43.222;27.924;2022-11-20T02:37:32;100364.03;;;20.12;79.41
30875;BME280;17581;43.222;27.924;2022-11-20T02:39:58;100363.19;;;20.11;78.96
30875;BME280;17581;43.222;27.924;2022-11-20T02:42:24;100360.69;;;20.16;78.74
30875;BME280;17581;43.222;27.924;2022-11-20T02:44:49;100362.41;;;20.17;78.76
30875;BME280;17581;43.222;27.924;2022-11-20T02:47:15;100357.31;;;20.14;78.62
30875;BME280;17581;43.222;27.924;2022-11-20T02:49:40;100345.47;;;20.07;78.65
30875;BME280;17581;43.222;27.924;2022-11-20T02:52:06;100349.69;;;20.09;78.75
30875;BME280;17581;43.222;27.924;2022-11-20T02:54:31;100338.59;;;20.11;78.56
30875;BME280;17581;43.222;27.924;2022-11-20T02:56:56;100313.94;;;20.04;78.44
30875;BME280;17581;43.222;27.924;2022-11-20T02:59:22;100328.44;;;20.05;78.86
30875;BME280;17581;43.222;27.924;2022-11-20T03:01:47;100326.03;;;19.95;78.65
30875;BME280;17581;43.222;27.924;2022-11-20T03:04:13;100343.72;;;19.99;78.69
30875;BME280;17581;43.222;27.924;2022-11-20T03:06:38;100342.09;;;20.05;78.61
30875;BME280;17581;43.222;27.924;2022-11-20T03:09:03;100336.75;;;19.97;78.60
30875;BME280;17581;43.222;27.924;2022-11-20T03:11:29;100326.19;;;19.94;78.75
30875;BME280;17581;43.222;27.924;2022-11-20T03:13:54;100322.19;;;19.90;78.74
30875;BME280;17581;43.222;27.924;2022-11-20T03:16:21;100341.63;;;20.01;78.91
30875;BME280;17581;43.222;27.924;2022-11-20T03:18:47;100334.00;;;19.97;78.90
30875;BME280;17581;43.222;27.924;2022-11-20T03:21:14;100323.47;;;19.94;79.04
30875;BME280;17581;43.222;27.924;2022-11-20T03:23:40;100335.72;;;19.98;78.98
30875;BME280;17581;43.222;27.924;2022-11-20T03:26:15;100324.41;;;20.01;78.77
30875;BME280;17581;43.222;27.924;2022-11-20T03:28:42;100311.34;;;19.96;78.66
30875;BME280;17581;43.222;27.924;2022-11-20T03:31:10;100308.41;;;19.98;78.73
30875;BME280;17581;43.222;27.924;2022-11-20T03:33:36;100315.81;;;20.04;78.50
30875;BME280;17581;43.222;27.924;2022-11-20T03:36:04;100317.78;;;20.10;78.25
30875;BME280;17581;43.222;27.924;2022-11-20T03:38:30;100312.31;;;20.10;78.21
30875;BME280;17581;43.222;27.924;2022-11-20T03:41:06;100323.72;;;20.14;77.99
30875;BME280;17581;43.222;27.924;2022-11-20T03:43:32;100324.56;;;20.14;77.83
30875;BME280;17581;43.222;27.924;2022-11-20T03:45:58;100272.38;;;19.88;77.82
30875;BME280;17581;43.222;27.924;2022-11-20T03:48:24;100318.81;;;20.09;77.71
30875;BME280;17581;43.222;27.924;2022-11-20T03:50:50;100315.25;;;20.08;77.69
30875;BME280;17581;43.222;27.924;2022-11-20T03:53:16;100264.53;;;19.78;77.72
30875;BME280;17581;43.222;27.924;2022-11-20T03:55:41;100306.84;;;20.10;77.67
30875;BME280;17581;43.222;27.924;2022-11-20T03:58:07;100315.06;;;20.10;77.45
30875;BME280;17581;43.222;27.924;2022-11-20T04:00:33;100306.84;;;20.10;77.38
30875;BME280;17581;43.222;27.924;2022-11-20T04:02:59;100312.72;;;20.07;77.39
30875;BME280;17581;43.222;27.924;2022-11-20T04:05:24;100302.19;;;20.04;77.75
30875;BME280;17581;43.222;27.924;2022-11-20T04:07:50;100302.00;;;20.05;77.34
30875;BME280;17581;43.222;27.924;2022-11-20T04:10:15;100295.28;;;20.08;77.15
30875;BME280;17581;43.222;27.924;2022-11-20T04:12:41;100265.91;;;19.89;77.15
30875;BME280;17581;43.222;27.924;2022-11-20T04:15:06;100298.22;;;20.06;76.83
30875;BME280;17581;43.222;27.924;2022-11-20T04:17:32;100294.63;;;20.06;76.79
30875;BME280;17581;43.222;27.924;2022-11-20T04:19:57;100288.72;;;20.02;76.86
30875;BME280;17581;43.222;27.924;2022-11-20T04:22:23;100273.38;;;19.80;77.19
30875;BME280;17581;43.222;27.924;2022-11-20T04:24:48;100291.88;;;19.85;77.49
30875;BME280;17581;43.222;27.924;2022-11-20T04:27:13;100268.59;;;19.68;77.60
30875;BME280;17581;43.222;27.924;2022-11-20T04:29:39;100268.81;;;19.66;78.24
30875;BME280;17581;43.222;27.924;2022-11-20T04:32:05;100279.59;;;19.74;78.01
30875;BME280;17581;43.222;27.924;2022-11-20T04:34:30;100287.69;;;19.68;78.53
30875;BME280;17581;43.222;27.924;2022-11-20T04:36:56;100292.50;;;19.66;78.97
30875;BME280;17581;43.222;27.924;2022-11-20T04:39:21;100287.63;;;19.61;78.82
30875;BME280;17581;43.222;27.924;2022-11-20T04:41:47;100286.88;;;19.52;79.37
30875;BME280;17581;43.222;27.924;2022-11-20T04:44:12;100278.88;;;19.51;78.88
30875;BME280;17581;43.222;27.924;2022-11-20T04:46:40;100290.00;;;19.49;79.00
30875;BME280;17581;43.222;27.924;2022-11-20T04:49:07;100286.31;;;19.42;79.32
30875;BME280;17581;43.222;27.924;2022-11-20T04:51:33;100276.16;;;19.36;79.64
30875;BME280;17581;43.222;27.924;2022-11-20T04:53:59;100282.94;;;19.40;79.68
30875;BME280;17581;43.222;27.924;2022-11-20T04:56:25;100278.22;;;19.49;79.43
30875;BME280;17581;43.222;27.924;2022-11-20T04:58:50;100295.31;;;19.58;78.91
30875;BME280;17581;43.222;27.924;2022-11-20T05:01:21;100279.00;;;19.43;78.47
30875;BME280;17581;43.222;27.924;2022-11-20T05:03:47;100311.31;;;19.61;78.06
30875;BME280;17581;43.222;27.924;2022-11-20T05:06:14;100301.91;;;19.63;78.02
30875;BME280;17581;43.222;27.924;2022-11-20T05:08:40;100275.22;;;19.59;77.65
30875;BME280;17581;43.222;27.924;2022-11-20T05:11:10;100270.78;;;19.58;77.84
30875;BME280;17581;43.222;27.924;2022-11-20T05:13:37;100276.22;;;19.58;77.74
30875;BME280;17581;43.222;27.924;2022-11-20T05:16:05;100278.31;;;19.55;78.19
30875;BME280;17581;43.222;27.924;2022-11-20T05:18:31;100275.22;;;19.59;78.09
30875;BME280;17581;43.222;27.924;2022-11-20T05:20:58;100270.13;;;19.55;77.90
30875;BME280;17581;43.222;27.924;2022-11-20T05:23:24;100270.91;;;19.49;78.10
30875;BME280;17581;43.222;27.924;2022-11-20T05:25:52;100276.44;;;19.56;77.93
30875;BME280;17581;43.222;27.924;2022-11-20T05:28:18;100285.34;;;19.65;77.32
30875;BME280;17581;43.222;27.924;2022-11-20T05:30:43;100288.53;;;19.68;77.00
30875;BME280;17581;43.222;27.924;2022-11-20T05:33:09;100286.28;;;19.72;76.71
30875;BME280;17581;43.222;27.924;2022-11-20T05:35:34;100272.34;;;19.67;76.39
30875;BME280;17581;43.222;27.924;2022-11-20T05:37:59;100296.44;;;19.78;76.33
30875;BME280;17581;43.222;27.924;2022-11-20T05:40:25;100304.25;;;19.81;76.08
30875;BME280;17581;43.222;27.924;2022-11-20T05:42:50;100310.81;;;19.86;75.98
30875;BME280;17581;43.222;27.924;2022-11-20T05:45:16;100309.50;;;19.82;75.89
30875;BME280;17581;43.222;27.924;2022-11-20T05:47:41;100292.59;;;19.72;76.17
30875;BME280;17581;43.222;27.924;2022-11-20T05:50:07;100321.81;;;19.93;75.49
30875;BME280;17581;43.222;27.924;2022-11-20T05:52:32;100316.41;;;19.99;75.09
30875;BME280;17581;43.222;27.924;2022-11-20T05:54:58;100316.41;;;19.99;75.10
30875;BME280;17581;43.222;27.924;2022-11-20T05:57:23;100315.56;;;19.99;75.06
30875;BME280;17581;43.222;27.924;2022-11-20T05:59:49;100308.63;;;19.82;75.48
30875;BME280;17581;43.222;27.924;2022-11-20T06:02:14;100288.81;;;19.73;75.84
30875;BME280;17581;43.222;27.924;2022-11-20T06:04:40;100314.88;;;19.76;75.54
30875;BME280;17581;43.222;27.924;2022-11-20T06:07:05;100314.94;;;19.82;75.77
30875;BME280;17581;43.222;27.924;2022-11-20T06:09:31;100317.34;;;19.71;76.05
30875;BME280;17581;43.222;27.924;2022-11-20T06:11:57;100312.13;;;19.76;75.97
30875;BME280;17581;43.222;27.924;2022-11-20T06:14:22;100317.59;;;19.76;75.72
30875;BME280;17581;43.222;27.924;2022-11-20T06:16:48;100317.75;;;19.89;75.45
30875;BME280;17581;43.222;27.924;2022-11-20T06:19:13;100319.47;;;19.90;75.09
30875;BME280;17581;43.222;27.924;2022-11-20T06:21:40;100308.25;;;19.85;75.25
30875;BME280;17581;43.222;27.924;2022-11-20T06:24:05;100325.94;;;19.89;75.07
30875;BME280;17581;43.222;27.924;2022-11-20T06:26:31;100324.63;;;19.99;75.02
30875;BME280;17581;43.222;27.924;2022-11-20T06:28:59;100313.88;;;19.98;74.91
30875;BME280;17581;43.222;27.924;2022-11-20T06:31:25;100327.78;;;20.03;74.29
30875;BME280;17581;43.222;27.924;2022-11-20T06:33:51;100330.13;;;20.06;74.31
30875;BME280;17581;43.222;27.924;2022-11-20T06:36:18;100324.16;;;20.17;74.09
30875;BME280;17581;43.222;27.924;2022-11-20T06:38:44;100307.50;;;20.12;73.47
30875;BME280;17581;43.222;27.924;2022-11-20T06:41:18;100316.91;;;20.24;73.40
30875;BME280;17581;43.222;27.924;2022-11-20T06:43:44;100324.25;;;20.24;73.45
30875;BME280;17581;43.222;27.924;2022-11-20T06:46:11;100325.16;;;20.31;73.20
30875;BME280;17581;43.222;27.924;2022-11-20T06:48:40;100289.63;;;20.09;72.80
30875;BME280;17581;43.222;27.924;2022-11-20T06:51:07;100331.38;;;20.39;72.50
30875;BME280;17581;43.222;27.924;2022-11-20T06:53:33;100302.09;;;20.33;72.12
30875;BME280;17581;43.222;27.924;2022-11-20T06:55:59;100325.38;;;20.50;71.96
30875;BME280;17581;43.222;27.924;2022-11-20T06:58:27;100331.69;;;20.51;71.77
30875;BME280;17581;43.222;27.924;2022-11-20T07:00:53;100325.94;;;20.67;71.40
30875;BME280;17581;43.222;27.924;2022-11-20T07:03:19;100322.84;;;20.77;71.02
30875;BME280;17581;43.222;27.924;2022-11-20T07:05:44;100302.22;;;20.74;70.45
30875;BME280;17581;43.222;27.924;2022-11-20T07:08:11;100329.06;;;20.92;70.21
30875;BME280;17581;43.222;27.924;2022-11-20T07:10:37;100236.25;;;20.49;69.78
30875;BME280;17581;43.222;27.924;2022-11-20T07:13:02;100323.69;;;21.05;69.45
30875;BME280;17581;43.222;27.924;2022-11-20T07:15:28;100329.00;;;21.06;69.21
30875;BME280;17581;43.222;27.924;2022-11-20T07:17:53;100328.13;;;21.06;69.46
30875;BME280;17581;43.222;27.924;2022-11-20T07:20:18;100309.63;;;21.08;69.10
30875;BME280;17581;43.222;27.924;2022-11-20T07:22:44;100326.81;;;21.23;68.78
30875;BME280;17581;43.222;27.924;2022-11-20T07:25:10;100317.31;;;21.19;68.44
30875;BME280;17581;43.222;27.924;2022-11-20T07:27:35;100321.72;;;21.20;68.56
30875;BME280;17581;43.222;27.924;2022-11-20T07:30:02;100333.34;;;21.22;68.38
30875;BME280;17581;43.222;27.924;2022-11-20T07:32:28;100323.84;;;21.18;68.41
30875;BME280;17581;43.222;27.924;2022-11-20T07:34:53;100321.94;;;21.19;68.58
30875;BME280;17581;43.222;27.924;2022-11-20T07:37:19;100318.75;;;21.15;68.62
30875;BME280;17581;43.222;27.924;2022-11-20T07:39:44;100318.75;;;21.15;68.90
30875;BME280;17581;43.222;27.924;2022-11-20T07:42:10;100327.41;;;21.19;68.98
30875;BME280;17581;43.222;27.924;2022-11-20T07:44:37;100312.50;;;21.21;69.03
30875;BME280;17581;43.222;27.924;2022-11-20T07:47:02;100317.38;;;21.32;68.75
30875;BME280;17581;43.222;27.924;2022-11-20T07:49:28;100316.38;;;21.40;68.30
30875;BME280;17581;43.222;27.924;2022-11-20T07:51:53;100319.78;;;21.48;68.32
30875;BME280;17581;43.222;27.924;2022-11-20T07:54:20;100321.09;;;21.52;67.96
30875;BME280;17581;43.222;27.924;2022-11-20T07:56:46;100313.94;;;21.58;67.87
30875;BME280;17581;43.222;27.924;2022-11-20T07:59:12;100310.59;;;21.62;67.51
30875;BME280;17581;43.222;27.924;2022-11-20T08:01:38;100311.47;;;21.69;67.20
30875;BME280;17581;43.222;27.924;2022-11-20T08:04:04;100321.16;;;21.72;67.21
30875;BME280;17581;43.222;27.924;2022-11-20T08:06:30;100321.59;;;21.76;66.89
30875;BME280;17581;43.222;27.924;2022-11-20T08:08:56;100330.69;;;21.83;66.74
30875;BME280;17581;43.222;27.924;2022-11-20T08:11:22;100321.69;;;21.89;66.87
30875;BME280;17581;43.222;27.924;2022-11-20T08:14:06;100318.75;;;21.97;66.39
30875;BME280;17581;43.222;27.924;2022-11-20T08:16:41;100321.31;;;22.05;65.90
30875;BME280;17581;43.222;27.924;2022-11-20T08:19:07;100328.88;;;22.03;65.71
30875;BME280;17581;43.222;27.924;2022-11-20T08:21:33;100329.31;;;22.00;65.69
30875;BME280;17581;43.222;27.924;2022-11-20T08:23:58;100322.31;;;21.91;65.84
30875;BME280;17581;43.222;27.924;2022-11-20T08:26:25;100285.59;;;21.79;65.74
30875;BME280;17581;43.222;27.924;2022-11-20T08:28:54;100298.31;;;21.93;65.65
30875;BME280;17581;43.222;27.924;2022-11-20T08:31:21;100314.75;;;21.99;65.58
30875;BME280;17581;43.222;27.924;2022-11-20T08:33:47;100286.22;;;21.81;65.62
30875;BME280;17581;43.222;27.924;2022-11-20T08:36:12;100317.47;;;21.93;65.52
30875;BME280;17581;43.222;27.924;2022-11-20T08:38:38;100321.31;;;21.98;65.60
30875;BME280;17581;43.222;27.924;2022-11-20T08:41:04;100315.16;;;21.96;65.55
30875;BME280;17581;43.222;27.924;2022-11-20T08:43:49;100304.03;;;21.98;65.43
30875;BME280;17581;43.222;27.924;2022-11-20T08:46:15;100302.78;;;22.07;65.27
30875;BME280;17581;43.222;27.924;2022-11-20T08:48:40;100309.09;;;22.14;65.34
30875;BME280;17581;43.222;27.924;2022-11-20T08:51:06;100299.00;;;22.21;64.93
30875;BME280;17581;43.222;27.924;2022-11-20T08:53:32;100293.97;;;22.24;64.56
30875;BME280;17581;43.222;27.924;2022-11-20T08:55:57;100311.66;;;22.22;64.83
30875;BME280;17581;43.222;27.924;2022-11-20T08:58:23;100310.00;;;22.28;64.26
30875;BME280;17581;43.222;27.924;2022-11-20T09:00:49;100308.28;;;22.20;64.24
30875;BME280;17581;43.222;27.924;2022-11-20T09:03:14;100290.13;;;22.06;64.28
30875;BME280;17581;43.222;27.924;2022-11-20T09:05:40;100298.56;;;22.11;64.71
30875;BME280;17581;43.222;27.924;2022-11-20T09:08:05;100300.69;;;22.09;64.67
30875;BME280;17581;43.222;27.924;2022-11-20T09:10:30;100301.91;;;22.00;65.07
30875;BME280;17581;43.222;27.924;2022-11-20T09:12:57;100291.41;;;22.03;64.94
30875;BME280;17581;43.222;27.924;2022-11-20T09:15:24;100282.13;;;22.04;64.77
30875;BME280;17581;43.222;27.924;2022-11-20T09:17:57;100253.38;;;21.81;64.68
30875;BME280;17581;43.222;27.924;2022-11-20T09:20:24;100288.84;;;22.02;64.94
30875;BME280;17581;43.222;27.924;2022-11-20T09:22:50;100280.03;;;22.13;64.88
30875;BME280;17581;43.222;27.924;2022-11-20T09:25:15;100287.19;;;22.14;64.51
30875;BME280;17581;43.222;27.924;2022-11-20T09:27:41;100268.22;;;22.06;64.71
30875;BME280;17581;43.222;27.924;2022-11-20T09:30:09;100285.13;;;22.22;64.42
30875;BME280;17581;43.222;27.924;2022-11-20T09:32:34;100259.41;;;22.10;64.38
30875;BME280;17581;43.222;27.924;2022-11-20T09:35:01;100249.66;;;22.08;64.33
30875;BME280;17581;43.222;27.924;2022-11-20T09:37:26;100273.75;;;22.32;63.83
30875;BME280;17581;43.222;27.924;2022-11-20T09:39:51;100266.16;;;22.34;64.13
30875;BME280;17581;43.222;27.924;2022-11-20T09:42:39;100267.19;;;22.33;63.67
30875;BME280;17581;43.222;27.924;2022-11-20T09:45:23;100242.13;;;22.23;63.61
30875;BME280;17581;43.222;27.924;2022-11-20T09:51:41;100257.06;;;22.27;63.29
30875;BME280;17581;43.222;27.924;2022-11-20T09:56:26;100246.78;;;22.29;63.23
30875;BME280;17581;43.222;27.924;2022-11-20T09:58:55;100248.03;;;22.33;62.89
30875;BME280;17581;43.222;27.924;2022-11-20T10:01:30;100238.34;;;22.37;63.00
30875;BME280;17581;43.222;27.924;2022-11-20T10:04:03;100239.19;;;22.38;62.63
30875;BME280;17581;43.222;27.924;2022-11-20T10:06:30;100254.34;;;22.34;62.66
30875;BME280;17581;43.222;27.924;2022-11-20T10:25:38;100209.66;;;22.46;62.30
30875;BME280;17581;43.222;27.924;2022-11-20T10:28:09;100170.25;;;22.21;62.54
30875;BME280;17581;43.222;27.924;2022-11-20T10:30:42;100180.16;;;22.22;62.17
30875;BME280;17581;43.222;27.924;2022-11-20T10:35:50;100186.28;;;22.37;62.05
30875;BME280;17581;43.222;27.924;2022-11-20T10:38:23;100199.97;;;22.44;61.97
30875;BME280;17581;43.222;27.924;2022-11-20T10:40:57;100198.28;;;22.43;62.09
30875;BME280;17581;43.222;27.924;2022-11-20T10:43:44;100189.00;;;22.37;62.31
30875;BME280;17581;43.222;27.924;2022-11-20T10:46:19;100194.06;;;22.40;62.30
30875;BME280;17581;43.222;27.924;2022-11-20T10:48:47;100189.00;;;22.37;62.23
30875;BME280;17581;43.222;27.924;2022-11-20T10:53:56;100189.00;;;22.50;61.80
30875;BME280;17581;43.222;27.924;2022-11-20T10:59:08;100184.56;;;22.49;61.86
30875;BME280;17581;43.222;27.924;2022-11-20T11:01:41;100162.88;;;22.15;62.54
30875;BME280;17581;43.222;27.924;2022-11-20T11:07:28;100205.44;;;22.50;61.95
30875;BME280;17581;43.222;27.924;2022-11-20T11:09:56;100171.94;;;22.35;61.72
30875;BME280;17581;43.222;27.924;2022-11-20T11:12:24;100187.75;;;22.46;61.57
30875;BME280;17581;43.222;27.924;2022-11-20T11:14:54;100185.84;;;22.53;61.47
30875;BME280;17581;43.222;27.924;2022-11-20T11:20:00;100194.69;;;22.55;61.10
30875;BME280;17581;43.222;27.924;2022-11-20T11:22:28;100195.53;;;22.56;61.15
30875;BME280;17581;43.222;27.924;2022-11-20T11:24:54;100181.41;;;22.52;61.36
30875;BME280;17581;43.222;27.924;2022-11-20T11:27:19;100180.56;;;22.52;61.20
30875;BME280;17581;43.222;27.924;2022-11-20T11:29:45;100194.06;;;22.53;61.52
30875;BME280;17581;43.222;27.924;2022-11-20T11:32:17;100198.88;;;22.58;61.24
30875;BME280;17581;43.222;27.924;2022-11-20T11:34:44;100195.31;;;22.57;61.38
30875;BME280;17581;43.222;27.924;2022-11-20T11:37:20;100197.41;;;22.62;61.08
30875;BME280;17581;43.222;27.924;2022-11-20T11:39:49;100164.53;;;22.42;61.37
30875;BME280;17581;43.222;27.924;2022-11-20T11:42:18;100206.72;;;22.67;60.98
30875;BME280;17581;43.222;27.924;2022-11-20T11:44:46;100208.84;;;22.65;61.12
30875;BME280;17581;43.222;27.924;2022-11-20T11:52:50;100217.66;;;22.54;60.88
30875;BME280;17581;43.222;27.924;2022-11-20T12:01:29;100230.31;;;22.49;61.44
30875;BME280;17581;43.222;27.924;2022-11-20T12:06:44;100207.34;;;22.30;61.23
30875;BME280;17581;43.222;27.924;2022-11-20T12:09:12;100233.28;;;22.47;60.99
30875;BME280;17581;43.222;27.924;2022-11-20T12:14:21;100222.50;;;22.52;60.95
30875;BME280;17581;43.222;27.924;2022-11-20T12:16:52;100205.66;;;22.42;60.87
30875;BME280;17581;43.222;27.924;2022-11-20T12:19:18;100217.03;;;22.52;60.52
30875;BME280;17581;43.222;27.924;2022-11-20T12:22:09;100210.09;;;22.43;60.88
30875;BME280;17581;43.222;27.924;2022-11-20T12:30:07;100212.41;;;22.33;60.70
30875;BME280;17581;43.222;27.924;2022-11-20T12:50:05;100201.66;;;22.32;60.88
30875;BME280;17581;43.222;27.924;2022-11-20T12:55:15;100207.75;;;22.27;61.27
30875;BME280;17581;43.222;27.924;2022-11-20T12:57:59;100191.34;;;22.07;61.54
30875;BME280;17581;43.222;27.924;2022-11-20T13:00:28;100202.91;;;22.03;61.29
30875;BME280;17581;43.222;27.924;2022-11-20T13:05:59;100219.34;;;22.09;61.50
30875;BME280;17581;43.222;27.924;2022-11-20T13:08:34;100228.19;;;22.05;61.68
30875;BME280;17581;43.222;27.924;2022-11-20T13:11:14;100221.88;;;22.11;61.85
30875;BME280;17581;43.222;27.924;2022-11-20T13:18:50;100185.84;;;21.94;61.94
30875;BME280;17581;43.222;27.924;2022-11-20T13:21:41;100205.44;;;22.04;62.01
30875;BME280;17581;43.222;27.924;2022-11-20T13:26:44;100198.88;;;21.99;62.08
30875;BME280;17581;43.222;27.924;2022-11-20T13:29:18;100199.53;;;21.94;62.34
30875;BME280;17581;43.222;27.924;2022-11-20T13:31:45;100176.31;;;21.70;62.42
30875;BME280;17581;43.222;27.924;2022-11-20T13:34:22;100193.56;;;21.78;62.64
30875;BME280;17581;43.222;27.924;2022-11-20T13:36:51;100188.09;;;21.78;62.65
30875;BME280;17581;43.222;27.924;2022-11-20T13:39:34;100217.56;;;21.76;62.83
30875;BME280;17581;43.222;27.924;2022-11-20T13:44:42;100193.13;;;21.61;62.82
30875;BME280;17581;43.222;27.924;2022-11-20T13:47:47;100227.25;;;21.71;62.99
30875;BME280;17581;43.222;27.924;2022-11-20T13:50:14;100183.34;;;21.39;63.24
30875;BME280;17581;43.222;27.924;2022-11-20T14:01:20;100214.19;;;21.67;63.38
30875;BME280;17581;43.222;27.924;2022-11-20T14:03:47;100186.75;;;21.47;63.32
30875;BME280;17581;43.222;27.924;2022-11-20T14:06:26;100212.03;;;21.56;63.60
30875;BME280;17581;43.222;27.924;2022-11-20T14:08:52;100216.69;;;21.62;63.47
30875;BME280;17581;43.222;27.924;2022-11-20T14:11:19;100208.69;;;21.60;63.41
30875;BME280;17581;43.222;27.924;2022-11-20T14:14:17;100215.22;;;21.66;63.31
30875;BME280;17581;43.222;27.924;2022-11-20T14:16:44;100210.78;;;21.65;63.06
30875;BME280;17581;43.222;27.924;2022-11-20T14:21:45;100223.44;;;21.66;63.29
30875;BME280;17581;43.222;27.924;2022-11-20T14:24:12;100226.81;;;21.68;63.21
30875;BME280;17581;43.222;27.924;2022-11-20T14:26:47;100218.41;;;21.69;63.11
30875;BME280;17581;43.222;27.924;2022-11-20T14:29:18;100207.00;;;21.59;63.40
30875;BME280;17581;43.222;27.924;2022-11-20T14:31:45;100202.19;;;21.61;63.22
30875;BME280;17581;43.222;27.924;2022-11-20T14:34:21;100200.66;;;21.59;63.39